Time;durP1;ratioP1;P1;durP2;ratioP2;P2;SDS_P1;SDS_P2;PMS_P1;PMS_P2;Temp;Humidity;BMP_temperature;BMP_pressure;BME280_temperature;BME280_humidity;BME280_pressure;Samples;Min_cycle;Max_cycle;Signal;HPM_P1;HPM_P2
2022/05/26 00:01:12;;;;;;;82.07;75.45;;;;;;;22.23;61.34;99662.72;5032366;28;20101;-86
2022/05/26 00:03:41;;;;;;;84.68;77.82;;;;;;;22.35;61.30;99668.00;5031200;28;20053;-86
2022/05/26 00:06:09;;;;;;;82.70;75.93;;;;;;;22.35;61.18;99679.56;5031291;28;20040;-86
2022/05/26 00:08:36;;;;;;;81.57;75.10;;;;;;;22.05;61.30;99631.59;5032462;28;20029;-87
2022/05/26 00:11:04;;;;;;;80.88;74.28;;;;;;;21.72;61.25;99578.75;5031020;28;20489;-86
2022/05/26 00:13:30;;;;;;;77.20;70.97;;;;;;;22.21;61.45;99686.38;5030974;28;20426;-86
2022/05/26 00:15:55;;;;;;;79.80;73.25;;;;;;;22.04;61.39;99648.78;5031010;28;20025;-87
2022/05/26 00:18:21;;;;;;;81.38;74.70;;;;;;;22.31;61.31;99688.41;5032134;28;20534;-86
2022/05/26 00:20:47;;;;;;;75.47;69.22;;;;;;;22.29;61.43;99694.00;5030980;28;20057;-86
2022/05/26 00:23:12;;;;;;;81.03;74.30;;;;;;;20.37;61.23;99394.78;5031970;28;20482;-87
2022/05/26 00:25:39;;;;;;;82.45;75.68;;;;;;;21.82;61.38;99621.06;5032520;28;20060;-85
2022/05/26 00:28:05;;;;;;;86.65;79.65;;;;;;;21.94;61.57;99662.06;5032353;28;20032;-85
2022/05/26 00:30:30;;;;;;;82.47;75.70;;;;;;;21.68;61.74;99622.50;5032424;28;20025;-85
2022/05/26 00:32:56;;;;;;;75.22;68.85;;;;;;;21.45;62.14;99608.19;5031156;28;20029;-85
2022/05/26 00:35:22;;;;;;;73.55;67.20;;;;;;;21.30;61.97;99583.78;5032659;28;20457;-85
2022/05/26 00:37:47;;;;;;;77.57;71.03;;;;;;;21.62;61.86;99629.66;5031434;28;20021;-85
2022/05/26 00:40:14;;;;;;;72.65;66.65;;;;;;;21.69;62.06;99624.94;5031672;28;20057;-85
2022/05/26 00:42:40;;;;;;;74.25;67.93;;;;;;;21.80;61.97;99655.44;5032453;28;20086;-85
2022/05/26 00:45:07;;;;;;;76.72;70.38;;;;;;;21.56;62.20;99615.34;5032504;28;20072;-85
2022/05/26 00:47:40;;;;;;;68.85;63.08;;;;;;;21.77;62.10;99658.63;5031989;28;20029;-85
2022/05/26 00:50:17;;;;;;;66.22;60.67;;;;;;;21.19;61.97;99569.38;5031960;28;20053;-86
2022/05/26 00:52:47;;;;;;;67.78;62.13;;;;;;;21.61;62.18;99665.66;5030726;28;20049;-85
2022/05/26 00:55:27;;;;;;;67.18;61.47;;;;;;;21.66;62.41;99662.22;5032002;28;20029;-85
2022/05/26 00:57:59;;;;;;;66.20;60.70;;;;;;;21.50;62.31;99658.47;5031753;28;20036;-85
2022/05/26 01:00:28;;;;;;;63.40;58.03;;;;;;;21.55;62.39;99672.00;5030427;28;20054;-86
2022/05/26 01:03:13;;;;;;;59.80;54.90;;;;;;;21.22;62.27;99622.63;5031475;28;20094;-85
2022/05/26 01:05:57;;;;;;;59.53;54.20;;;;;;;21.01;62.20;99585.75;5031652;28;20036;-85
2022/05/26 01:08:29;;;;;;;55.28;50.60;;;;;;;20.73;62.25;99532.16;5031006;28;20033;-86
2022/05/26 01:10:54;;;;;;;55.55;51.05;;;;;;;20.72;62.16;99544.75;5030195;28;20029;-85
2022/05/26 01:13:21;;;;;;;52.58;48.20;;;;;;;20.98;62.19;99590.81;5031502;28;20036;-85
2022/05/26 01:15:56;;;;;;;55.75;50.95;;;;;;;21.43;62.07;99661.34;5030044;28;20025;-86
2022/05/26 01:18:38;;;;;;;53.13;48.83;;;;;;;20.73;62.13;99556.28;5031215;28;20113;-86
2022/05/26 01:21:14;;;;;;;50.90;46.35;;;;;;;21.13;62.23;99625.94;5029832;28;20026;-85
2022/05/26 01:24:12;;;;;;;53.35;48.67;;;;;;;20.83;62.11;99573.41;5031467;28;20564;-87
2022/05/26 01:26:53;;;;;;;50.25;45.92;;;;;;;21.41;62.14;99671.53;5031791;28;20032;-85
2022/05/26 01:29:37;;;;;;;50.08;45.80;;;;;;;21.39;62.13;99668.25;5030327;28;20021;-86
2022/05/26 01:32:12;;;;;;;50.72;46.25;;;;;;;21.24;62.23;99647.38;5030192;28;20032;-85
2022/05/26 01:34:50;;;;;;;48.28;44.28;;;;;;;20.72;61.95;99554.66;5031898;28;20029;-85
2022/05/26 01:37:34;;;;;;;44.45;40.67;;;;;;;21.20;62.21;99629.28;5031748;28;20029;-85
2022/05/26 01:40:22;;;;;;;40.45;36.97;;;;;;;21.00;61.87;99600.22;5031725;28;20040;-85
2022/05/26 01:43:02;;;;;;;39.70;36.15;;;;;;;21.41;61.62;99660.78;5030505;28;20055;-85
2022/05/26 01:45:39;;;;;;;36.53;33.38;;;;;;;21.05;61.54;99619.09;5030259;28;20364;-86
2022/05/26 01:48:22;;;;;;;39.58;36.08;;;;;;;21.18;61.72;99642.94;5031051;28;20033;-86
2022/05/26 01:50:56;;;;;;;39.78;36.40;;;;;;;20.93;61.77;99605.78;5031180;28;20117;-86
2022/05/26 01:53:59;;;;;;;38.63;35.53;;;;;;;20.93;61.76;99616.50;5031017;28;20076;-86
2022/05/26 01:56:52;;;;;;;35.33;32.38;;;;;;;21.09;61.51;99657.84;5024638;28;20092;-86
2022/05/26 01:59:31;;;;;;;36.50;33.17;;;;;;;20.80;61.74;99640.13;5030866;28;20509;-86
2022/05/26 02:02:04;;;;;;;37.53;34.05;;;;;;;19.47;61.53;99418.91;5029696;28;20056;-85
2022/05/26 02:04:35;;;;;;;35.15;32.10;;;;;;;21.03;61.86;99692.88;5030991;28;20036;-85
2022/05/26 02:07:16;;;;;;;33.22;30.33;;;;;;;20.98;61.48;99656.03;5029754;28;20029;-85
2022/05/26 02:09:43;;;;;;;34.95;31.92;;;;;;;20.99;61.55;99663.03;5031158;28;20033;-86
2022/05/26 02:12:16;;;;;;;35.85;32.67;;;;;;;20.74;61.50;99616.94;5029665;28;20461;-86
2022/05/26 02:14:59;;;;;;;31.85;29.15;;;;;;;21.08;61.19;99660.75;5031010;28;20509;-85
2022/05/26 02:17:34;;;;;;;31.85;28.90;;;;;;;20.92;61.09;99641.72;5030937;28;20498;-85
2022/05/26 02:20:09;;;;;;;31.80;29.15;;;;;;;21.00;61.32;99670.03;5047733;28;20112;-85
2022/05/26 02:23:08;;;;;;;35.03;31.73;;;;;;;20.93;61.23;99670.19;5033282;28;20037;-86
2022/05/26 02:25:34;;;;;;;30.45;27.60;;;;;;;20.70;61.49;99654.19;5033318;28;20064;-85
2022/05/26 02:28:00;;;;;;;31.27;28.38;;;;;;;20.84;61.26;99668.13;5034581;28;20029;-85
2022/05/26 02:30:30;;;;;;;30.33;27.55;;;;;;;20.87;61.62;99673.03;5033121;28;20520;-85
2022/05/26 02:32:57;;;;;;;31.33;28.30;;;;;;;20.91;61.52;99669.63;5033111;28;20565;-85
2022/05/26 02:35:25;;;;;;;31.42;28.67;;;;;;;20.22;61.50;99574.16;5033005;28;20395;-85
2022/05/26 02:37:58;;;;;;;31.80;28.90;;;;;;;20.67;61.61;99630.53;5034010;28;20025;-86
2022/05/26 02:40:24;;;;;;;31.30;28.55;;;;;;;20.00;61.48;99515.84;5032601;28;20506;-85
2022/05/26 02:43:04;;;;;;;32.42;29.42;;;;;;;20.98;61.40;99668.66;5033865;28;20115;-85
2022/05/26 02:45:43;;;;;;;31.70;28.88;;;;;;;20.98;61.34;99657.91;5032797;28;20067;-85
2022/05/26 02:48:47;;;;;;;34.10;31.13;;;;;;;20.91;61.85;99664.25;5032807;28;20041;-85
2022/05/26 02:51:22;;;;;;;40.08;36.58;;;;;;;20.89;61.54;99671.72;5030282;28;20120;-85
2022/05/26 02:54:04;;;;;;;40.15;36.72;;;;;;;20.90;61.52;99677.91;5033840;28;20049;-85
2022/05/26 02:56:33;;;;;;;46.20;42.20;;;;;;;20.88;61.91;99658.56;5032451;28;20029;-85
2022/05/26 02:59:01;;;;;;;48.80;44.30;;;;;;;20.84;62.02;99666.28;5032240;28;20036;-85
2022/05/26 03:01:33;;;;;;;51.38;46.80;;;;;;;20.47;62.19;99624.78;5044645;28;20057;-83
2022/05/26 03:04:16;;;;;;;53.45;48.85;;;;;;;20.51;62.14;99647.41;5056741;28;20040;-84
2022/05/26 03:07:06;;;;;;;47.28;43.17;;;;;;;20.83;61.85;99691.47;5048616;28;20032;-85
2022/05/26 03:09:35;;;;;;;49.63;45.33;;;;;;;20.25;61.87;99593.25;5034155;28;20022;-85
2022/05/26 03:12:01;;;;;;;53.03;48.38;;;;;;;20.06;61.66;99561.50;5034131;28;20033;-85
2022/05/26 03:14:26;;;;;;;55.05;50.20;;;;;;;20.50;61.70;99637.72;5034494;28;20036;-88
2022/05/26 03:16:53;;;;;;;56.50;51.78;;;;;;;20.00;61.49;99592.75;5032831;28;20068;-85
2022/05/26 03:19:19;;;;;;;66.13;60.42;;;;;;;20.81;61.50;99687.41;5032543;28;20029;-85
2022/05/26 03:21:45;;;;;;;65.00;59.45;;;;;;;20.75;61.67;99707.94;5033565;28;20546;-87
2022/05/26 03:24:11;;;;;;;65.28;59.70;;;;;;;20.13;61.70;99599.72;5033796;28;20028;-87
2022/05/26 03:26:37;;;;;;;66.40;60.60;;;;;;;20.35;62.08;99661.53;5032191;28;20025;-86
2022/05/26 03:29:04;;;;;;;66.97;60.97;;;;;;;20.61;61.59;99701.25;5032421;28;20056;-87
2022/05/26 03:31:31;;;;;;;65.03;59.40;;;;;;;20.62;61.95;99700.19;5031636;28;20029;-87
2022/05/26 03:42:11;;;;;;;67.18;61.35;;;;;;;20.42;61.62;99708.66;5055358;28;20047;-84
2022/05/26 03:44:37;;;;;;;69.65;63.72;;;;;;;20.60;61.79;99724.56;5053986;28;20079;-85
2022/05/26 03:47:03;;;;;;;68.50;62.60;;;;;;;20.59;61.84;99716.75;5035805;28;20456;-87
2022/05/26 03:49:29;;;;;;;69.13;63.25;;;;;;;20.57;61.87;99713.50;5032718;28;20021;-87
2022/05/26 03:51:57;;;;;;;68.65;62.78;;;;;;;20.24;61.93;99679.28;5032733;28;20054;-87
2022/05/26 03:54:23;;;;;;;68.10;62.35;;;;;;;20.17;61.94;99662.53;5032761;28;20026;-87
2022/05/26 03:56:48;;;;;;;69.10;63.17;;;;;;;20.22;61.74;99662.63;5032594;28;20036;-87
2022/05/26 03:59:13;;;;;;;69.25;63.35;;;;;;;20.14;61.87;99639.69;5032263;28;20036;-87
2022/05/26 04:01:39;;;;;;;67.78;61.97;;;;;;;19.77;62.16;99572.19;5031746;28;20021;-87
2022/05/26 04:04:04;;;;;;;68.53;62.33;;;;;;;19.71;61.82;99558.94;5031714;28;20476;-87
2022/05/26 04:06:30;;;;;;;68.75;62.78;;;;;;;20.06;62.01;99634.69;5031412;28;20021;-87
2022/05/26 04:08:56;;;;;;;66.70;60.88;;;;;;;20.58;62.23;99699.03;5031699;28;20036;-88
2022/05/26 04:11:23;;;;;;;68.05;61.92;;;;;;;20.52;61.74;99686.56;5032663;28;20021;-87
2022/05/26 04:13:52;;;;;;;70.97;64.75;;;;;;;20.54;61.91;99684.47;5031211;28;20465;-87
2022/05/26 04:16:19;;;;;;;69.53;63.40;;;;;;;20.03;61.72;99600.31;5031485;28;20091;-87
2022/05/26 04:18:45;;;;;;;70.70;64.72;;;;;;;19.78;61.79;99567.66;5032298;28;20036;-87
2022/05/26 04:21:12;;;;;;;75.43;69.03;;;;;;;20.65;61.84;99690.84;5030948;28;20033;-87
2022/05/26 04:23:38;;;;;;;73.65;67.35;;;;;;;20.78;61.47;99726.25;5032280;28;20029;-87
2022/05/26 04:26:05;;;;;;;74.78;67.97;;;;;;;18.61;61.85;99351.84;5030848;28;20502;-87
2022/05/26 04:28:31;;;;;;;73.95;67.68;;;;;;;20.82;62.02;99689.84;5032209;28;20033;-87
2022/05/26 04:30:57;;;;;;;78.50;71.18;;;;;;;20.70;62.45;99664.91;5032111;28;20442;-87
2022/05/26 04:33:23;;;;;;;76.88;70.22;;;;;;;20.94;62.62;99698.66;5032271;28;20025;-87
2022/05/26 04:35:49;;;;;;;76.72;69.82;;;;;;;20.75;62.39;99666.88;5032257;28;20056;-87
2022/05/26 04:38:14;;;;;;;79.20;72.07;;;;;;;20.84;62.41;99677.00;5032269;28;20506;-87
2022/05/26 04:40:40;;;;;;;80.60;73.82;;;;;;;21.09;62.99;99695.41;5030808;28;20414;-87
2022/05/26 04:43:07;;;;;;;80.22;73.35;;;;;;;21.15;63.10;99691.75;5031597;28;20051;-87
2022/05/26 04:45:32;;;;;;;81.47;74.15;;;;;;;20.24;63.20;99543.38;5032114;28;20029;-87
2022/05/26 04:47:58;;;;;;;77.97;71.28;;;;;;;20.41;63.54;99551.47;5030732;28;20027;-87
2022/05/26 04:50:23;;;;;;;79.90;72.75;;;;;;;21.26;64.30;99698.13;5032017;28;20104;-86
2022/05/26 04:52:49;;;;;;;81.13;74.32;;;;;;;21.31;64.14;99719.72;5030724;28;20069;-87
2022/05/26 04:55:14;;;;;;;82.60;75.20;;;;;;;21.17;64.27;99654.75;5030939;28;20452;-87
2022/05/26 04:57:40;;;;;;;83.82;76.72;;;;;;;21.45;64.46;99683.41;5030956;28;20406;-87
2022/05/26 05:00:10;;;;;;;80.32;73.63;;;;;;;21.14;64.51;99622.19;5032039;28;20533;-87
2022/05/26 05:02:36;;;;;;;75.45;69.05;;;;;;;21.19;64.86;99630.31;5030503;28;20100;-87
2022/05/26 05:05:03;;;;;;;87.78;80.38;;;;;;;21.64;65.06;99689.34;5031938;28;20099;-86
2022/05/26 05:07:29;;;;;;;84.15;76.97;;;;;;;21.28;65.54;99634.25;5031149;28;20458;-87
2022/05/26 05:09:54;;;;;;;86.47;79.25;;;;;;;21.25;65.29;99634.75;5030058;28;20108;-87
2022/05/26 05:12:21;;;;;;;78.38;71.72;;;;;;;21.23;65.18;99604.63;5031289;28;20415;-87
2022/05/26 05:14:49;;;;;;;67.32;61.70;;;;;;;22.01;64.62;99712.97;5025059;28;20036;-86
2022/05/26 05:17:16;;;;;;;84.32;77.07;;;;;;;22.10;64.58;99712.31;5031543;28;20033;-86
2022/05/26 05:19:42;;;;;;;82.18;74.97;;;;;;;22.07;64.37;99703.94;5031976;28;20029;-86
2022/05/26 05:22:32;;;;;;;76.93;70.50;;;;;;;21.57;64.44;99610.78;5028386;28;20060;-86
2022/05/26 05:25:06;;;;;;;76.85;70.30;;;;;;;22.24;64.26;99720.84;5018272;28;20037;-86
2022/05/26 05:28:01;;;;;;;79.60;72.82;;;;;;;22.27;64.15;99722.22;5029573;28;20064;-87
2022/05/26 05:30:32;;;;;;;79.30;72.55;;;;;;;21.64;64.05;99616.00;5014518;28;20034;-85
2022/05/26 05:33:09;;;;;;;76.75;70.30;;;;;;;22.29;64.16;99720.09;5021601;28;20025;-86
2022/05/26 05:35:41;;;;;;;80.97;74.13;;;;;;;22.06;63.77;99678.13;5022611;28;20041;-86
2022/05/26 05:38:06;;;;;;;73.65;66.93;;;;;;;21.88;63.83;99641.56;5022563;28;20038;-86
2022/05/26 05:40:32;;;;;;;76.28;69.75;;;;;;;21.40;63.72;99600.06;5024673;28;20434;-86
2022/05/26 05:42:57;;;;;;;71.07;64.78;;;;;;;21.74;63.62;99598.13;5028373;28;20120;-86
2022/05/26 05:45:22;;;;;;;72.95;66.22;;;;;;;22.51;63.53;99735.19;5017391;28;20037;-86
2022/05/26 05:47:49;;;;;;;80.40;73.35;;;;;;;22.63;63.46;99726.97;5021508;28;20030;-86
2022/05/26 05:50:15;;;;;;;76.72;70.07;;;;;;;22.77;63.45;99738.97;5016421;28;20109;-86
2022/05/26 05:52:40;;;;;;;76.07;69.65;;;;;;;22.75;63.26;99749.19;5018389;28;20077;-86
2022/05/26 05:55:06;;;;;;;70.05;64.10;;;;;;;22.28;63.03;99651.22;5026980;28;20037;-86
2022/05/26 05:57:32;;;;;;;73.45;67.55;;;;;;;22.52;62.79;99684.88;5024328;28;20030;-86
2022/05/26 05:59:57;;;;;;;72.82;66.70;;;;;;;22.40;62.63;99655.44;5013909;28;20426;-86
2022/05/26 06:02:23;;;;;;;67.88;61.92;;;;;;;22.72;62.21;99676.19;5016654;28;20041;-86
2022/05/26 06:04:49;;;;;;;65.00;59.65;;;;;;;23.24;61.82;99759.16;5038337;28;20032;-86
2022/05/26 06:07:18;;;;;;;69.45;63.38;;;;;;;23.12;61.74;99733.19;5033807;28;20033;-86
2022/05/26 06:09:45;;;;;;;67.93;62.08;;;;;;;23.41;61.84;99749.06;5035481;28;20041;-86
2022/05/26 06:12:10;;;;;;;64.05;58.58;;;;;;;22.89;61.71;99668.03;5034822;28;20060;-86
2022/05/26 06:14:36;;;;;;;66.65;60.90;;;;;;;23.59;61.96;99755.97;5033855;28;20030;-86
2022/05/26 06:17:03;;;;;;;64.80;59.15;;;;;;;23.09;61.80;99670.94;5033517;28;20071;-86
2022/05/26 06:19:28;;;;;;;62.72;57.58;;;;;;;23.28;61.31;99712.59;5035050;28;20032;-86
2022/05/26 06:21:53;;;;;;;68.90;62.97;;;;;;;23.63;61.51;99773.25;5032924;28;20021;-87
2022/05/26 06:24:23;;;;;;;57.67;52.58;;;;;;;23.81;61.54;99797.16;5033558;28;20025;-87
2022/05/26 06:26:49;;;;;;;61.53;56.17;;;;;;;23.90;61.14;99757.03;5020900;28;20025;-86
2022/05/26 06:37:28;;;;;;;60.15;54.97;;;;;;;23.91;60.55;99745.16;5027913;28;20129;-85
2022/05/26 06:39:55;;;;;;;61.20;55.45;;;;;;;24.15;60.60;99761.75;5027437;28;20064;-84
2022/05/26 06:42:23;;;;;;;60.97;55.60;;;;;;;23.82;60.46;99700.88;5021163;28;20044;-84
2022/05/26 06:44:50;;;;;;;58.92;53.53;;;;;;;24.03;60.29;99725.00;5032266;28;20480;-86
2022/05/26 06:47:20;;;;;;;53.88;49.05;;;;;;;24.37;59.85;99765.13;5033880;28;20099;-86
2022/05/26 06:49:46;;;;;;;56.53;51.17;;;;;;;24.40;59.81;99772.69;5027524;28;20139;-86
2022/05/26 06:52:14;;;;;;;51.05;46.45;;;;;;;24.44;59.70;99767.59;5022974;28;20053;-85
2022/05/26 06:54:46;;;;;;;49.42;44.72;;;;;;;24.52;59.73;99778.69;5018241;28;20040;-86
2022/05/26 06:57:13;;;;;;;53.10;47.88;;;;;;;24.21;59.27;99718.34;5024184;28;20112;-85
2022/05/26 06:59:39;;;;;;;48.17;43.40;;;;;;;23.90;59.23;99682.31;5017527;28;20037;-86
2022/05/26 07:02:07;;;;;;;46.05;41.28;;;;;;;24.19;58.79;99714.28;5028742;28;20022;-86
2022/05/26 07:04:33;;;;;;;45.17;40.38;;;;;;;24.58;58.72;99772.28;5013308;28;20057;-85
2022/05/26 07:06:59;;;;;;;44.28;39.63;;;;;;;23.39;57.95;99619.97;5015891;28;20065;-86
2022/05/26 07:09:27;;;;;;;44.40;39.80;;;;;;;23.96;58.12;99673.19;5027826;28;20022;-86
2022/05/26 07:11:53;;;;;;;42.10;37.67;;;;;;;23.84;57.92;99653.72;5029612;28;20141;-86
2022/05/26 07:14:19;;;;;;;41.05;36.78;;;;;;;24.66;57.70;99769.06;5014489;28;20490;-86
2022/05/26 07:16:45;;;;;;;39.80;35.90;;;;;;;24.70;57.40;99775.56;5028080;28;20029;-86
2022/05/26 07:19:15;;;;;;;41.30;35.35;;;;;;;24.34;57.37;99719.78;5023316;28;20033;-86
2022/05/26 07:21:46;;;;;;;38.35;34.58;;;;;;;24.56;57.18;99749.31;5031981;28;20036;-86
2022/05/26 07:24:12;;;;;;;40.97;36.28;;;;;;;24.93;56.63;99776.97;5013451;28;20033;-86
2022/05/26 07:26:38;;;;;;;39.17;35.20;;;;;;;25.04;56.63;99777.84;5012285;28;20132;-85
2022/05/26 07:29:04;;;;;;;39.85;35.58;;;;;;;23.69;56.01;99556.56;5016479;28;20113;-85
2022/05/26 07:31:30;;;;;;;39.60;35.47;;;;;;;24.05;55.79;99579.91;5020891;28;20510;-85
2022/05/26 07:33:55;;;;;;;40.50;34.35;;;;;;;24.65;55.72;99677.53;5032754;28;20540;-85
2022/05/26 07:42:14;;;;;;;36.65;32.63;;;;;;;25.15;55.68;99725.44;5013010;28;20414;-85
2022/05/26 07:44:46;;;;;;;36.45;32.65;;;;;;;25.46;55.04;99769.53;5014905;28;20422;-85
2022/05/26 07:47:12;;;;;;;36.55;32.65;;;;;;;25.47;55.16;99775.75;5024557;28;20450;-85
2022/05/26 07:49:41;;;;;;;34.05;29.83;;;;;;;25.41;55.30;99774.13;5016463;28;20037;-84
2022/05/26 07:52:07;;;;;;;37.50;33.28;;;;;;;25.43;55.33;99774.66;5039344;28;20136;-85
2022/05/26 07:54:33;;;;;;;37.65;32.30;;;;;;;24.83;55.25;99681.59;5013305;28;20029;-85
2022/05/26 07:57:01;;;;;;;37.33;33.45;;;;;;;25.49;55.44;99779.00;5012155;28;20079;-86
2022/05/26 07:59:27;;;;;;;36.15;32.28;;;;;;;25.12;55.03;99720.56;5012974;28;20172;-85
2022/05/26 08:01:53;;;;;;;38.50;32.38;;;;;;;25.61;54.74;99785.75;5013633;28;20025;-86
2022/05/26 08:04:19;;;;;;;34.78;31.15;;;;;;;25.43;54.50;99742.22;5015379;28;20033;-85
2022/05/26 08:06:47;;;;;;;31.98;28.88;;;;;;;25.21;54.23;99688.41;5021782;28;20453;-85
2022/05/26 08:09:22;;;;;;;36.65;32.25;;;;;;;25.59;54.21;99731.13;5026934;28;20030;-85
2022/05/26 08:11:47;;;;;;;34.85;31.02;;;;;;;26.07;53.69;99774.94;5012834;28;20057;-85
2022/05/26 08:14:13;;;;;;;35.65;30.38;;;;;;;25.06;53.29;99607.34;5014386;28;20418;-85
2022/05/26 08:16:39;;;;;;;35.33;28.65;;;;;;;24.81;52.92;99605.44;5028228;28;20045;-84
2022/05/26 08:19:05;;;;;;;32.67;29.15;;;;;;;25.94;53.09;99770.88;5047656;28;20037;-85
2022/05/26 08:21:31;;;;;;;33.70;30.05;;;;;;;26.12;53.16;99769.50;5031196;28;20483;-83
2022/05/26 08:23:58;;;;;;;30.88;27.67;;;;;;;26.15;52.86;99773.56;5021896;28;20175;-85
2022/05/26 08:26:23;;;;;;;32.35;26.33;;;;;;;26.14;52.63;99786.28;5011581;28;20036;-85
2022/05/26 08:28:49;;;;;;;29.40;26.50;;;;;;;25.53;52.52;99669.22;5020926;28;20037;-85
2022/05/26 08:31:15;;;;;;;34.10;30.30;;;;;;;26.18;52.28;99773.81;5028453;28;20033;-85
2022/05/26 08:33:42;;;;;;;35.05;30.35;;;;;;;25.93;52.15;99698.91;5014409;28;20030;-85
2022/05/26 08:36:15;;;;;;;29.83;26.65;;;;;;;26.56;51.77;99775.06;5022082;28;20025;-85
2022/05/26 08:38:41;;;;;;;30.58;26.88;;;;;;;26.68;52.03;99769.31;5029935;28;20038;-85
2022/05/26 08:41:10;;;;;;;32.63;29.13;;;;;;;26.56;51.80;99742.56;5031560;28;20033;-85
2022/05/26 08:43:39;;;;;;;31.35;28.00;;;;;;;26.70;51.27;99734.63;5031671;28;20068;-86
2022/05/26 08:46:08;;;;;;;32.17;26.60;;;;;;;26.60;50.98;99692.16;5045613;28;20056;-86
2022/05/26 08:48:45;;;;;;;30.42;26.98;;;;;;;27.23;50.86;99775.53;5030285;28;20028;-85
2022/05/26 08:51:19;;;;;;;33.35;26.70;;;;;;;27.36;50.47;99776.81;5029099;28;20033;-86
2022/05/26 08:53:44;;;;;;;36.13;32.33;;;;;;;27.28;49.74;99759.25;5030248;28;20056;-86
2022/05/26 08:56:14;;;;;;;31.92;28.00;;;;;;;27.22;49.64;99723.22;5025202;28;20189;-85
2022/05/26 08:58:46;;;;;;;31.27;25.75;;;;;;;27.50;49.08;99747.97;5038331;28;20036;-85
2022/05/26 09:01:16;;;;;;;31.38;26.17;;;;;;;27.80;48.40;99774.03;5033601;28;20033;-85
2022/05/26 09:03:42;;;;;;;32.65;29.27;;;;;;;27.92;48.75;99777.19;5014786;28;20098;-85
2022/05/26 09:06:14;;;;;;;26.65;22.83;;;;;;;28.22;48.16;99775.25;5020483;28;20037;-85
2022/05/26 09:14:32;;;;;;;26.67;20.25;;;;;;;28.77;45.62;99771.06;5018261;28;20021;-85
2022/05/26 09:17:09;;;;;;;21.27;17.50;;;;;;;28.87;43.84;99783.75;5025729;28;20036;-86
2022/05/26 09:19:43;;;;;;;18.13;16.20;;;;;;;28.94;44.07;99776.84;5022070;28;20034;-85
2022/05/26 09:22:30;;;;;;;20.83;18.48;;;;;;;28.96;44.30;99777.34;5010126;28;20026;-85
2022/05/26 09:24:56;;;;;;;22.73;19.48;;;;;;;29.02;44.62;99770.78;5011558;28;20026;-84
2022/05/26 09:27:36;;;;;;;25.30;22.55;;;;;;;29.13;44.78;99773.34;5011654;28;20029;-84
2022/05/26 09:30:27;;;;;;;25.00;22.10;;;;;;;29.24;45.07;99786.50;5012178;28;20044;-84
2022/05/26 09:32:54;;;;;;;24.50;21.30;;;;;;;29.07;45.51;99738.06;5021993;28;20060;-84
2022/05/26 09:35:19;;;;;;;24.55;21.70;;;;;;;29.52;44.86;99781.19;5013712;28;20032;-84
2022/05/26 09:37:48;;;;;;;26.75;21.52;;;;;;;29.70;44.65;99781.13;5022402;28;20034;-84
2022/05/26 09:40:24;;;;;;;27.17;21.95;;;;;;;29.83;44.11;99776.06;5016759;28;20041;-83
2022/05/26 09:42:56;;;;;;;23.00;19.42;;;;;;;29.89;44.05;99789.28;5029923;28;20033;-84
2022/05/26 09:45:23;;;;;;;24.02;20.25;;;;;;;29.31;44.03;99680.03;5033503;28;20032;-85
2022/05/26 09:47:57;;;;;;;25.85;18.33;;;;;;;30.08;43.25;99772.88;5043359;28;20079;-84
2022/05/26 09:50:31;;;;;;;24.80;18.88;;;;;;;30.26;41.85;99777.44;5030134;28;20025;-83
2022/05/26 09:52:57;;;;;;;24.52;18.45;;;;;;;30.40;41.52;99790.25;5023272;28;20057;-85
2022/05/26 09:55:27;;;;;;;20.50;15.82;;;;;;;29.95;40.70;99695.50;5032245;28;20045;-83
2022/05/26 09:58:11;;;;;;;21.85;17.08;;;;;;;30.73;39.62;99771.91;5046645;28;20035;-83
2022/05/26 10:00:46;;;;;;;22.02;18.23;;;;;;;30.99;39.64;99781.94;5052815;28;20100;-85
2022/05/26 10:03:26;;;;;;;23.30;17.92;;;;;;;31.21;38.88;99774.91;5037032;28;20025;-84
2022/05/26 10:06:11;;;;;;;20.35;16.05;;;;;;;31.36;38.05;99768.31;5051842;28;20446;-85
2022/05/26 10:08:52;;;;;;;19.88;16.58;;;;;;;31.39;37.07;99765.78;5036627;28;20171;-85
2022/05/26 10:11:47;;;;;;;20.77;15.65;;;;;;;31.48;36.80;99769.38;5040971;28;20465;-85
2022/05/26 10:14:54;;;;;;;23.05;16.67;;;;;;;31.63;37.92;99775.56;5038124;28;20498;-85
2022/05/26 10:17:41;;;;;;;18.85;15.40;;;;;;;31.83;37.57;99770.41;5034297;28;20034;-85
2022/05/26 10:20:34;;;;;;;18.92;15.10;;;;;;;31.83;37.62;99756.75;5034409;28;20037;-84
2022/05/26 10:23:16;;;;;;;18.88;15.75;;;;;;;31.77;37.17;99710.78;5059178;28;20086;-84
2022/05/26 10:25:50;;;;;;;26.48;17.48;;;;;;;32.37;36.33;99770.34;5039990;28;20028;-85
2022/05/26 10:28:44;;;;;;;19.98;17.10;;;;;;;32.36;36.28;99757.81;5046220;28;20037;-86
2022/05/26 10:31:49;;;;;;;19.98;15.13;;;;;;;32.18;36.05;99735.06;5053280;28;20040;-84
2022/05/26 10:34:35;;;;;;;20.17;14.60;;;;;;;32.47;35.75;99764.59;5037080;28;20052;-85
2022/05/26 10:37:26;;;;;;;20.45;15.10;;;;;;;31.57;34.33;99622.84;5046576;28;20025;-84
2022/05/26 10:40:10;;;;;;;21.23;16.40;;;;;;;32.54;35.29;99716.53;5043944;28;20100;-84
2022/05/26 10:42:43;;;;;;;22.65;16.60;;;;;;;32.66;35.78;99690.50;5032704;28;20029;-84
2022/05/26 10:45:20;;;;;;;21.05;13.93;;;;;;;33.22;34.76;99754.41;5050459;28;20522;-84
2022/05/26 10:47:56;;;;;;;20.60;13.05;;;;;;;32.36;32.82;99600.13;5053879;28;20036;-84
2022/05/26 10:50:28;;;;;;;20.48;13.45;;;;;;;33.47;33.91;99751.69;5069223;28;20056;-85
2022/05/26 10:53:31;;;;;;;23.58;14.50;;;;;;;33.66;33.92;99748.59;5036418;28;20045;-84
2022/05/26 10:56:20;;;;;;;19.88;14.20;;;;;;;33.93;32.69;99761.09;5045941;28;20030;-84
2022/05/26 10:59:07;;;;;;;16.52;13.48;;;;;;;33.92;33.23;99699.22;5046408;28;20032;-84
2022/05/26 11:01:48;;;;;;;18.52;13.52;;;;;;;34.03;31.67;99694.97;5052376;28;20108;-84
2022/05/26 11:04:37;;;;;;;21.20;12.63;;;;;;;34.41;32.53;99738.84;5052116;28;20048;-83
2022/05/26 11:07:19;;;;;;;19.48;13.13;;;;;;;34.51;32.05;99740.38;5035909;28;20088;-83
2022/05/26 11:10:07;;;;;;;19.05;11.90;;;;;;;34.73;30.46;99734.59;5043332;28;20390;-84
2022/05/26 11:12:42;;;;;;;16.27;11.43;;;;;;;34.69;31.60;99727.34;5046531;28;20418;-84
2022/05/26 11:18:21;;;;;;;15.75;11.60;;;;;;;34.01;31.30;99543.81;5041317;28;20124;-83
2022/05/26 11:20:53;;;;;;;14.00;10.73;;;;;;;35.09;30.97;99722.25;5044666;28;20025;-84
2022/05/26 11:23:20;;;;;;;20.35;12.48;;;;;;;34.20;30.56;99568.03;5048801;28;20436;-84
2022/05/26 11:25:48;;;;;;;21.17;12.68;;;;;;;35.19;29.97;99710.84;5041512;28;20025;-84
2022/05/26 11:28:26;;;;;;;22.42;13.98;;;;;;;34.95;29.78;99692.34;5044514;28;20036;-83
2022/05/26 11:37:18;;;;;;;17.88;10.52;;;;;;;35.58;29.08;99687.50;5033396;28;20035;-84
2022/05/26 11:39:45;;;;;;;16.70;10.30;;;;;;;35.66;28.45;99689.34;5048900;28;20045;-84
2022/05/26 11:42:28;;;;;;;14.13;8.85;;;;;;;35.79;27.73;99681.94;5034726;28;20477;-84
2022/05/26 11:45:13;;;;;;;17.08;9.57;;;;;;;35.49;27.38;99637.38;5061129;28;20028;-84
2022/05/26 11:47:49;;;;;;;12.85;7.70;;;;;;;35.87;27.33;99681.06;5068981;28;20091;-84
2022/05/26 11:50:29;;;;;;;13.80;7.75;;;;;;;35.95;26.13;99677.41;5088334;28;20024;-84
2022/05/26 11:52:54;;;;;;;18.95;7.57;;;;;;;35.93;25.83;99681.63;5072054;28;20524;-84
2022/05/26 11:55:38;;;;;;;10.35;6.90;;;;;;;36.04;25.22;99676.47;5086652;28;20078;-84
2022/05/26 11:58:25;;;;;;;15.40;8.80;;;;;;;36.14;24.79;99676.81;5076887;28;20044;-84
2022/05/26 12:01:15;;;;;;;16.00;9.65;;;;;;;36.21;25.88;99690.78;5059282;28;20025;-83
2022/05/26 12:04:15;;;;;;;18.80;10.15;;;;;;;36.14;25.75;99678.75;5052212;28;20512;-84
2022/05/26 12:06:51;;;;;;;11.60;8.90;;;;;;;35.98;26.09;99668.47;5050942;28;20040;-84
2022/05/26 12:09:21;;;;;;;12.98;7.90;;;;;;;35.95;25.41;99668.34;5047981;28;20057;-84
2022/05/26 12:11:59;;;;;;;14.75;8.13;;;;;;;35.92;25.72;99664.34;5060710;28;20029;-83
2022/05/26 12:15:00;;;;;;;13.85;9.82;;;;;;;35.53;26.68;99668.50;5061995;28;20054;-84
2022/05/26 12:17:45;;;;;;;10.13;6.85;;;;;;;35.42;25.18;99661.84;5058067;28;20025;-84